createdAt,value
2023-01-08T00:00:35.866Z,85.50
2023-01-08T00:03:10.770Z,85.60
2023-01-08T00:05:38.216Z,85.60
2023-01-08T00:08:06.792Z,85.80
2023-01-08T00:10:33.647Z,85.70
2023-01-08T00:13:03.815Z,85.70
2023-01-08T00:15:32.711Z,85.70
2023-01-08T00:18:01.859Z,85.90
2023-01-08T00:20:39.268Z,85.80
2023-01-08T00:23:06.255Z,86.00
2023-01-08T00:25:33.094Z,86.10
2023-01-08T00:28:02.219Z,86.00
2023-01-08T00:30:32.932Z,86.10
2023-01-08T00:33:03.842Z,85.90
2023-01-08T00:35:31.877Z,86.10
2023-01-08T00:37:58.877Z,86.20
2023-01-08T00:40:28.845Z,86.20
2023-01-08T00:42:59.010Z,86.30
2023-01-08T00:45:28.680Z,86.20
2023-01-08T00:47:55.528Z,86.40
2023-01-08T00:50:28.832Z,86.40
2023-01-08T00:52:55.823Z,86.30
2023-01-08T00:55:28.515Z,86.50
2023-01-08T00:57:55.946Z,86.40
2023-01-08T01:00:22.999Z,86.50
2023-01-08T01:02:49.947Z,86.50
2023-01-08T01:05:17.455Z,86.70
2023-01-08T01:07:57.914Z,86.60
2023-01-08T01:10:24.932Z,86.80
2023-01-08T01:13:00.686Z,86.90
2023-01-08T01:15:49.219Z,86.90
2023-01-08T01:18:16.384Z,86.90
2023-01-08T01:20:43.298Z,86.80
2023-01-08T01:23:16.381Z,86.70
2023-01-08T01:25:45.724Z,86.50
2023-01-08T01:28:12.768Z,86.50
2023-01-08T01:30:40.046Z,86.30
2023-01-08T01:33:07.011Z,86.20
2023-01-08T01:35:33.995Z,86.20
2023-01-08T01:38:04.585Z,86.20
2023-01-08T01:40:32.936Z,86.20
2023-01-08T01:43:02.685Z,86.20
2023-01-08T01:45:37.554Z,86.20
2023-01-08T01:48:09.311Z,86.20
2023-01-08T01:50:40.425Z,86.20
2023-01-08T01:53:11.545Z,86.20
2023-01-08T01:55:45.731Z,86.20
2023-01-08T01:58:15.592Z,86.20
2023-01-08T02:00:49.626Z,86.10
2023-01-08T02:03:21.189Z,86.20
2023-01-08T02:05:55.050Z,86.20
2023-01-08T02:08:31.820Z,86.10
2023-01-08T02:11:07.176Z,86.20
2023-01-08T02:13:38.617Z,86.20
2023-01-08T02:16:12.668Z,86.30
2023-01-08T02:18:46.308Z,86.40
2023-01-08T02:21:19.959Z,86.40
2023-01-08T02:23:49.386Z,86.50
2023-01-08T02:26:26.964Z,86.50
2023-01-08T02:28:59.068Z,86.50
2023-01-08T02:31:32.257Z,86.50
2023-01-08T02:33:59.418Z,86.50
2023-01-08T02:36:33.730Z,86.50
2023-01-08T02:39:09.363Z,86.50
2023-01-08T02:41:59.209Z,86.50
2023-01-08T02:44:36.043Z,86.40
2023-01-08T02:47:07.776Z,86.40
2023-01-08T02:49:38.930Z,86.40
2023-01-08T02:52:07.066Z,86.40
2023-01-08T02:54:38.303Z,86.40
2023-01-08T02:57:37.590Z,86.40
2023-01-08T03:00:05.796Z,86.30
2023-01-08T03:02:40.983Z,86.30
2023-01-08T03:05:17.479Z,86.40
2023-01-08T03:07:49.700Z,86.30
2023-01-08T03:10:20.149Z,86.40
2023-01-08T03:12:56.643Z,86.40
2023-01-08T03:15:28.903Z,86.40
2023-01-08T03:20:42.003Z,86.40
2023-01-08T03:23:34.044Z,86.50
2023-01-08T03:26:16.114Z,86.40
2023-01-08T03:28:48.446Z,86.40
2023-01-08T03:31:19.732Z,86.50
2023-01-08T03:33:56.857Z,86.60
2023-01-08T03:36:26.067Z,86.60
2023-01-08T03:39:04.409Z,86.70
2023-01-08T03:41:46.227Z,86.70
2023-01-08T03:44:14.747Z,86.70
2023-01-08T03:46:47.637Z,86.70
2023-01-08T03:49:17.684Z,86.60
2023-01-08T03:51:48.962Z,86.60
2023-01-08T03:54:18.486Z,86.60
2023-01-08T03:56:51.143Z,86.60
2023-01-08T03:59:22.493Z,86.60
2023-01-08T04:01:52.630Z,86.60
2023-01-08T04:04:23.137Z,86.60
2023-01-08T04:06:51.717Z,86.60
2023-01-08T04:09:18.858Z,86.60
2023-01-08T04:11:45.686Z,86.60
2023-01-08T04:14:15.148Z,86.50
2023-01-08T04:16:43.389Z,86.50
2023-01-08T04:19:12.120Z,86.50
2023-01-08T04:21:44.175Z,86.50
2023-01-08T04:24:15.072Z,86.50
2023-01-08T04:26:43.151Z,86.40
2023-01-08T04:29:15.822Z,86.30
2023-01-08T04:31:51.743Z,86.20
2023-01-08T04:34:19.128Z,86.20
2023-01-08T04:36:47.398Z,86.10
2023-01-08T04:39:14.230Z,86.10
2023-01-08T04:41:42.431Z,86.10
2023-01-08T04:44:12.574Z,86.00
2023-01-08T04:46:39.676Z,86.00
2023-01-08T04:49:10.483Z,86.00
2023-01-08T04:51:42.678Z,86.00
2023-01-08T04:54:09.646Z,86.00
2023-01-08T04:56:38.931Z,86.00
2023-01-08T04:59:07.016Z,86.00
2023-01-08T05:01:34.124Z,86.10
2023-01-08T05:04:02.584Z,86.10
2023-01-08T05:06:32.614Z,86.00
2023-01-08T05:08:59.829Z,86.10
2023-01-08T05:11:28.941Z,86.10
2023-01-08T05:13:59.351Z,86.10
2023-01-08T05:16:29.331Z,86.20
2023-01-08T05:18:58.845Z,86.20
2023-01-08T05:21:26.183Z,86.20
2023-01-08T05:24:03.198Z,86.20
2023-01-08T05:26:30.184Z,86.20
2023-01-08T05:28:59.521Z,86.30
2023-01-08T05:31:26.856Z,86.30
2023-01-08T05:33:53.886Z,86.30
2023-01-08T05:36:25.067Z,86.30
2023-01-08T05:38:55.298Z,86.30
2023-01-08T05:41:25.096Z,86.40
2023-01-08T05:43:55.117Z,86.30
2023-01-08T05:46:25.005Z,86.40
2023-01-08T05:48:54.809Z,86.40
2023-01-08T05:51:22.840Z,86.50
2023-01-08T05:53:49.773Z,86.50
2023-01-08T05:56:24.238Z,86.50
2023-01-08T05:58:54.144Z,86.50
2023-01-08T06:01:36.364Z,86.60
2023-01-08T06:04:08.176Z,86.60
2023-01-08T06:06:44.393Z,86.70
2023-01-08T06:09:14.099Z,86.70
2023-01-08T06:11:43.771Z,86.70
2023-01-08T06:14:10.645Z,86.70
2023-01-08T06:16:37.539Z,86.70
2023-01-08T06:19:06.816Z,86.90
2023-01-08T06:21:33.701Z,86.80
2023-01-08T06:24:07.865Z,86.90
2023-01-08T06:26:36.693Z,87.00
2023-01-08T06:29:08.463Z,86.90
2023-01-08T06:31:36.359Z,86.90
2023-01-08T06:34:03.312Z,87.00
2023-01-08T06:36:32.967Z,87.10
2023-01-08T06:39:01.868Z,87.10
2023-01-08T06:41:28.757Z,87.10
2023-01-08T06:43:57.571Z,87.20
2023-01-08T06:46:27.777Z,87.10
2023-01-08T06:49:04.936Z,87.20
2023-01-08T06:51:35.716Z,87.30
2023-01-08T06:54:19.514Z,87.30
2023-01-08T06:56:53.657Z,87.30
2023-01-08T06:59:32.463Z,87.20
2023-01-08T07:02:02.845Z,87.20
2023-01-08T07:04:30.226Z,87.20
2023-01-08T07:06:57.147Z,87.30
2023-01-08T07:09:24.013Z,87.30
2023-01-08T07:11:53.920Z,87.30
2023-01-08T07:14:27.199Z,87.30
2023-01-08T07:16:57.220Z,87.40
2023-01-08T07:19:27.678Z,87.40
2023-01-08T07:21:56.858Z,87.40
2023-01-08T07:24:23.796Z,87.40
2023-01-08T07:26:53.656Z,87.40
2023-01-08T07:29:23.055Z,87.40
2023-01-08T07:31:52.437Z,87.40
2023-01-08T07:34:19.654Z,87.40
2023-01-08T07:36:48.074Z,87.40
2023-01-08T07:39:14.922Z,87.40
2023-01-08T07:41:46.439Z,87.40
2023-01-08T07:44:13.370Z,87.30
2023-01-08T07:46:53.655Z,87.30
2023-01-08T07:49:22.447Z,87.30
2023-01-08T07:51:53.214Z,87.30
2023-01-08T07:54:21.584Z,87.30
2023-01-08T07:56:50.844Z,87.30
2023-01-08T07:59:17.941Z,87.30
2023-01-08T08:01:44.845Z,87.30
2023-01-08T08:04:18.721Z,87.30
2023-01-08T08:06:52.036Z,87.30
2023-01-08T08:09:23.754Z,87.30
2023-01-08T08:11:52.659Z,87.30
2023-01-08T08:14:19.520Z,87.30
2023-01-08T08:16:46.621Z,87.40
2023-01-08T08:19:13.716Z,87.30
2023-01-08T08:21:41.725Z,87.30
2023-01-08T08:24:08.829Z,87.30
2023-01-08T08:26:37.300Z,87.30
2023-01-08T08:29:09.201Z,87.20
2023-01-08T08:31:39.103Z,87.20
2023-01-08T08:34:08.772Z,87.10
2023-01-08T08:36:35.674Z,87.10
2023-01-08T08:39:03.417Z,87.00
2023-01-08T08:41:33.388Z,87.00
2023-01-08T08:44:01.819Z,86.90
2023-01-08T08:46:31.297Z,86.90
2023-01-08T08:48:58.346Z,86.80
2023-01-08T08:51:27.653Z,86.80
2023-01-08T08:53:59.228Z,86.70
2023-01-08T08:56:33.681Z,86.70
2023-01-08T08:59:04.391Z,86.70
2023-01-08T09:01:31.856Z,86.60
2023-01-08T09:03:58.796Z,86.70
2023-01-08T09:06:28.835Z,86.70
2023-01-08T09:08:59.710Z,86.70
2023-01-08T09:11:27.818Z,86.60
2023-01-08T09:13:58.922Z,86.60
2023-01-08T09:16:27.516Z,86.60
2023-01-08T09:18:55.926Z,86.60
2023-01-08T09:21:22.939Z,86.50
2023-01-08T09:23:52.699Z,86.40
2023-01-08T09:26:19.741Z,86.70
2023-01-08T09:28:46.637Z,87.10
2023-01-08T09:31:15.877Z,86.90
2023-01-08T09:33:44.224Z,86.70
2023-01-08T09:36:12.042Z,86.30
2023-01-08T09:38:40.816Z,86.10
2023-01-08T09:41:10.880Z,85.60
2023-01-08T09:43:43.876Z,84.20
2023-01-08T09:46:12.870Z,84.00
2023-01-08T09:48:41.344Z,83.40
2023-01-08T09:51:13.458Z,83.60
2023-01-08T09:53:43.759Z,83.10
2023-01-08T09:56:18.933Z,83.40
2023-01-08T09:59:00.576Z,83.30
2023-01-08T10:01:52.709Z,82.70
2023-01-08T10:04:27.594Z,82.60
2023-01-08T10:07:21.890Z,82.10
2023-01-08T10:09:52.235Z,82.60
2023-01-08T10:12:27.276Z,82.80
2023-01-08T10:14:59.975Z,82.80
2023-01-08T10:17:30.864Z,82.90
2023-01-08T10:20:00.244Z,83.00
2023-01-08T10:22:37.611Z,82.80
2023-01-08T10:25:09.825Z,82.70
2023-01-08T10:27:46.609Z,82.50
2023-01-08T10:30:19.504Z,82.60
2023-01-08T10:32:54.430Z,82.90
2023-01-08T10:35:36.482Z,82.80
2023-01-08T10:38:07.531Z,82.80
2023-01-08T10:40:51.422Z,82.40
2023-01-08T10:43:20.667Z,81.70
2023-01-08T10:46:02.738Z,81.30
2023-01-08T10:48:34.495Z,81.70
2023-01-08T10:51:15.654Z,81.10
2023-01-08T10:53:46.491Z,80.40
2023-01-08T10:56:23.239Z,80.70
2023-01-08T10:58:53.503Z,81.00
2023-01-08T11:01:26.748Z,80.90
2023-01-08T11:04:08.940Z,80.60
2023-01-08T11:06:49.496Z,80.90
2023-01-08T11:09:42.755Z,81.10
2023-01-08T11:12:35.785Z,80.40
2023-01-08T11:15:04.190Z,79.90
2023-01-08T11:17:37.658Z,79.80
2023-01-08T11:20:22.611Z,79.40
2023-01-08T11:22:50.774Z,79.60
2023-01-08T11:25:27.056Z,79.40
2023-01-08T11:27:58.205Z,79.00
2023-01-08T11:30:32.745Z,79.30
2023-01-08T11:33:05.253Z,79.00
2023-01-08T11:35:37.944Z,78.20
2023-01-08T11:38:07.214Z,78.40
2023-01-08T11:40:42.340Z,77.90
2023-01-08T11:43:21.137Z,77.40
2023-01-08T11:46:17.062Z,77.20
2023-01-08T11:48:57.529Z,77.60
2023-01-08T11:51:44.806Z,77.90
2023-01-08T11:54:32.939Z,78.10
2023-01-08T11:57:13.771Z,78.00
2023-01-08T11:59:56.326Z,78.10
2023-01-08T12:02:40.348Z,78.50
2023-01-08T12:05:31.708Z,78.60
2023-01-08T12:08:07.192Z,78.90
2023-01-08T12:10:59.668Z,78.60
2023-01-08T12:13:54.157Z,78.30
2023-01-08T12:16:44.979Z,78.40
2023-01-08T12:19:22.119Z,78.70
2023-01-08T12:22:07.564Z,78.80
2023-01-08T12:25:27.544Z,78.60
2023-01-08T12:28:06.720Z,78.10
2023-01-08T12:30:47.526Z,78.30
2023-01-08T12:33:27.439Z,78.30
2023-01-08T12:35:57.796Z,78.70
2023-01-08T12:38:29.780Z,78.60
2023-01-08T12:41:00.104Z,78.40
2023-01-08T12:43:31.553Z,78.00
2023-01-08T12:46:04.167Z,77.80
2023-01-08T12:48:35.168Z,77.10
2023-01-08T12:51:07.811Z,76.70
2023-01-08T12:53:42.826Z,75.90
2023-01-08T12:56:16.014Z,75.00
2023-01-08T12:59:14.042Z,74.90
2023-01-08T13:01:54.224Z,75.10
2023-01-08T13:04:22.608Z,74.50
2023-01-08T13:06:51.798Z,74.80
2023-01-08T13:09:24.569Z,73.70
2023-01-08T13:11:54.342Z,72.50
2023-01-08T13:14:21.961Z,73.10
2023-01-08T13:17:02.060Z,73.70
2023-01-08T13:19:30.791Z,73.40
2023-01-08T13:21:59.758Z,73.60
2023-01-08T13:24:52.606Z,73.40
2023-01-08T13:27:29.424Z,74.10
2023-01-08T13:30:02.149Z,73.60
2023-01-08T13:32:47.711Z,73.80
2023-01-08T13:35:32.550Z,74.10
2023-01-08T13:38:14.567Z,74.30
2023-01-08T13:40:57.189Z,74.10
2023-01-08T13:43:28.734Z,74.30
2023-01-08T13:46:15.896Z,74.30
2023-01-08T13:48:57.172Z,74.60
2023-01-08T13:51:35.225Z,74.40
2023-01-08T13:54:12.660Z,74.10
2023-01-08T13:56:41.952Z,74.30
2023-01-08T13:59:21.495Z,74.40
2023-01-08T14:01:55.684Z,74.70
2023-01-08T14:04:24.541Z,74.30
2023-01-08T14:07:04.691Z,74.80
2023-01-08T14:09:34.504Z,74.60
2023-01-08T14:12:04.171Z,74.60
2023-01-08T14:14:46.075Z,74.50
2023-01-08T14:17:19.014Z,74.40
2023-01-08T14:19:47.929Z,74.80
2023-01-08T14:22:19.589Z,74.80
2023-01-08T14:24:59.735Z,74.60
2023-01-08T14:27:32.483Z,74.80
2023-01-08T14:29:59.981Z,74.70
2023-01-08T14:32:29.358Z,75.00
2023-01-08T14:35:00.836Z,75.00
2023-01-08T14:37:27.729Z,75.10
2023-01-08T14:40:01.750Z,75.20
2023-01-08T14:42:53.624Z,75.40
2023-01-08T14:45:24.127Z,75.30
2023-01-08T14:47:57.373Z,75.40
2023-01-08T14:50:30.716Z,75.50
2023-01-08T14:53:05.068Z,75.50
2023-01-08T14:55:32.298Z,75.60
2023-01-08T14:57:59.555Z,75.70
2023-01-08T15:00:29.294Z,75.70
2023-01-08T15:02:56.642Z,75.90
2023-01-08T15:05:33.597Z,75.90
2023-01-08T15:08:03.120Z,76.00
2023-01-08T15:10:39.719Z,76.20
2023-01-08T15:13:21.155Z,76.20
2023-01-08T15:15:57.484Z,76.30
2023-01-08T15:18:29.217Z,76.40
2023-01-08T15:20:57.794Z,76.50
2023-01-08T15:23:28.275Z,76.50
2023-01-08T15:25:56.589Z,76.60
2023-01-08T15:28:29.403Z,76.70
2023-01-08T15:30:57.210Z,76.70
2023-01-08T15:33:27.344Z,76.80
2023-01-08T15:35:57.256Z,76.80
2023-01-08T15:38:27.993Z,76.90
2023-01-08T15:40:55.343Z,76.90
2023-01-08T15:43:22.281Z,77.00
2023-01-08T15:45:51.211Z,77.10
2023-01-08T15:48:19.905Z,77.10
2023-01-08T15:50:47.048Z,77.20
2023-01-08T15:53:18.912Z,77.20
2023-01-08T15:55:49.842Z,77.30
2023-01-08T15:58:21.210Z,77.40
2023-01-08T16:00:48.179Z,77.40
2023-01-08T16:03:25.409Z,77.50
2023-01-08T16:05:55.228Z,77.50
2023-01-08T16:08:45.634Z,77.60
2023-01-08T16:11:12.442Z,77.60
2023-01-08T16:13:45.781Z,77.80
2023-01-08T16:16:14.167Z,77.80
2023-01-08T16:18:41.441Z,77.90
2023-01-08T16:21:10.136Z,78.00
2023-01-08T16:23:40.866Z,78.10
2023-01-08T16:26:11.396Z,78.10
2023-01-08T16:32:17.510Z,78.20
2023-01-08T16:34:44.385Z,78.30
2023-01-08T16:37:16.764Z,78.40
2023-01-08T16:39:44.066Z,78.50
2023-01-08T16:42:16.040Z,78.60
2023-01-08T16:44:45.130Z,78.60
2023-01-08T16:47:25.317Z,78.60
2023-01-08T16:50:05.560Z,78.70
2023-01-08T16:52:32.415Z,78.70
2023-01-08T16:55:01.804Z,78.70
2023-01-08T16:57:31.322Z,78.70
2023-01-08T17:00:02.584Z,78.70
2023-01-08T17:02:31.723Z,78.70
2023-01-08T17:05:04.528Z,78.70
2023-01-08T17:07:37.108Z,78.70
2023-01-08T17:10:07.501Z,78.70
2023-01-08T17:12:35.816Z,78.80
2023-01-08T17:15:02.931Z,78.80
2023-01-08T17:17:36.047Z,78.80
2023-01-08T17:20:05.032Z,78.80
2023-01-08T17:22:31.934Z,78.80
2023-01-08T17:24:58.869Z,78.80
2023-01-08T17:27:25.921Z,78.80
2023-01-08T17:29:52.748Z,78.80
2023-01-08T17:32:26.009Z,78.90
2023-01-08T17:34:54.945Z,78.80
2023-01-08T17:37:23.347Z,78.90
2023-01-08T17:39:50.441Z,78.80
2023-01-08T17:42:28.993Z,78.80
2023-01-08T17:44:57.309Z,78.80
2023-01-08T17:47:26.898Z,78.80
2023-01-08T17:49:55.435Z,78.70
2023-01-08T17:52:25.521Z,78.70
2023-01-08T17:54:59.021Z,78.70
2023-01-08T17:57:26.576Z,78.70
2023-01-08T17:59:54.669Z,78.80
2023-01-08T18:02:21.786Z,78.80
2023-01-08T18:04:54.955Z,78.90
2023-01-08T18:07:23.974Z,78.90
2023-01-08T18:09:54.482Z,78.80
2023-01-08T18:12:21.663Z,78.80
2023-01-08T18:14:48.594Z,78.80
2023-01-08T18:17:18.099Z,78.80
2023-01-08T18:19:45.144Z,78.70
2023-01-08T18:22:12.122Z,78.60
2023-01-08T18:24:42.887Z,78.60
2023-01-08T18:27:11.607Z,78.60
2023-01-08T18:29:38.460Z,78.60
2023-01-08T18:32:18.916Z,78.70
2023-01-08T18:34:45.708Z,78.70
2023-01-08T18:37:12.564Z,78.80
2023-01-08T18:39:41.168Z,78.90
2023-01-08T18:42:25.680Z,79.00
2023-01-08T18:44:55.994Z,79.10
2023-01-08T18:47:25.574Z,79.20
2023-01-08T18:49:59.107Z,79.30
2023-01-08T18:52:27.313Z,79.40
2023-01-08T18:55:00.676Z,79.50
2023-01-08T18:57:29.672Z,79.60
2023-01-08T18:59:56.913Z,79.70
2023-01-08T19:02:44.393Z,79.70
2023-01-08T19:05:13.464Z,79.80
2023-01-08T19:07:41.729Z,79.90
2023-01-08T19:10:11.666Z,80.00
2023-01-08T19:12:39.438Z,80.00
2023-01-08T19:15:10.094Z,80.10
2023-01-08T19:17:37.091Z,80.30
2023-01-08T19:20:04.860Z,80.30
2023-01-08T19:22:32.620Z,80.40
2023-01-08T19:25:02.024Z,80.40
2023-01-08T19:27:33.284Z,80.50
2023-01-08T19:30:00.302Z,80.50
2023-01-08T19:32:27.199Z,80.50
2023-01-08T19:34:56.695Z,80.50
2023-01-08T19:37:23.660Z,80.50
2023-01-08T19:39:50.821Z,80.50
2023-01-08T19:42:38.511Z,80.50
2023-01-08T19:45:13.493Z,80.50
2023-01-08T19:47:40.420Z,80.50
2023-01-08T19:50:11.309Z,80.50
2023-01-08T19:52:38.519Z,80.50
2023-01-08T19:55:05.901Z,80.50
2023-01-08T19:57:37.355Z,80.60
2023-01-08T20:00:09.345Z,80.60
2023-01-08T20:02:37.636Z,80.60
2023-01-08T20:05:05.027Z,80.60
2023-01-08T20:07:33.080Z,80.60
2023-01-08T20:10:03.009Z,80.60
2023-01-08T20:12:30.029Z,80.60
2023-01-08T20:15:02.150Z,80.60
2023-01-08T20:17:32.374Z,80.60
2023-01-08T20:19:59.277Z,80.60
2023-01-08T20:22:27.730Z,80.50
2023-01-08T20:24:56.455Z,80.50
2023-01-08T20:27:24.639Z,80.50
2023-01-08T20:29:53.251Z,80.50
2023-01-08T20:32:25.780Z,80.50
2023-01-08T20:34:54.637Z,80.50
2023-01-08T20:37:22.188Z,80.40
2023-01-08T20:40:15.970Z,80.40
2023-01-08T20:42:52.545Z,80.40
2023-01-08T20:45:19.341Z,80.40
2023-01-08T20:47:48.155Z,80.40
2023-01-08T20:50:20.602Z,80.50
2023-01-08T20:52:47.649Z,80.50
2023-01-08T20:55:22.753Z,80.40
2023-01-08T20:57:49.742Z,80.50
2023-01-08T21:00:19.708Z,80.40
2023-01-08T21:02:46.603Z,80.50
2023-01-08T21:05:13.622Z,80.50
2023-01-08T21:07:42.063Z,80.50
2023-01-08T21:10:10.603Z,80.50
2023-01-08T21:12:37.589Z,80.50
2023-01-08T21:15:06.225Z,80.60
2023-01-08T21:17:36.436Z,80.70
2023-01-08T21:20:06.123Z,80.80
2023-01-08T21:22:32.908Z,80.80
2023-01-08T21:25:04.286Z,80.90
2023-01-08T21:27:38.629Z,81.00
2023-01-08T21:30:09.040Z,81.00
2023-01-08T21:32:37.214Z,81.00
2023-01-08T21:35:04.777Z,81.00
2023-01-08T21:37:34.676Z,81.10
2023-01-08T21:40:04.059Z,81.20
2023-01-08T21:42:49.454Z,81.30
2023-01-08T21:45:25.751Z,81.30
2023-01-08T21:47:53.506Z,81.40
2023-01-08T21:50:21.075Z,81.50
2023-01-08T21:53:06.499Z,81.50
2023-01-08T21:55:35.077Z,81.50
2023-01-08T21:58:02.120Z,81.60
2023-01-08T22:00:29.200Z,81.60
2023-01-08T22:02:56.325Z,81.70
2023-01-08T22:05:23.299Z,81.80
2023-01-08T22:07:50.366Z,82.10
2023-01-08T22:10:17.329Z,82.10
2023-01-08T22:12:46.170Z,82.30
2023-01-08T22:15:13.035Z,82.70
2023-01-08T22:17:41.293Z,82.80
2023-01-08T22:20:09.836Z,82.70
2023-01-08T22:22:37.077Z,82.80
2023-01-08T22:25:05.319Z,82.90
2023-01-08T22:27:34.355Z,83.00
2023-01-08T22:30:03.941Z,83.10
2023-01-08T22:32:30.758Z,83.10
2023-01-08T22:34:57.930Z,83.20
2023-01-08T22:37:24.891Z,83.30
2023-01-08T22:39:52.003Z,83.50
2023-01-08T22:42:18.937Z,83.70
2023-01-08T22:44:46.091Z,83.90
2023-01-08T22:47:14.230Z,84.00
2023-01-08T22:49:42.285Z,84.10
2023-01-08T22:52:10.667Z,84.10
2023-01-08T22:54:38.614Z,84.10
2023-01-08T22:57:05.665Z,83.90
2023-01-08T22:59:32.676Z,84.00
2023-01-08T23:01:59.621Z,84.00
2023-01-08T23:04:27.951Z,84.00
2023-01-08T23:06:54.794Z,83.90
2023-01-08T23:09:21.686Z,83.90
2023-01-08T23:11:48.793Z,83.80
2023-01-08T23:14:16.523Z,83.90
2023-01-08T23:16:43.645Z,84.00
2023-01-08T23:19:10.827Z,83.90
2023-01-08T23:21:39.098Z,83.90
2023-01-08T23:24:10.979Z,83.90
2023-01-08T23:26:41.923Z,83.90
2023-01-08T23:29:09.419Z,83.90
2023-01-08T23:31:37.843Z,83.90
2023-01-08T23:34:05.630Z,84.00
2023-01-08T23:36:32.771Z,83.90
2023-01-08T23:39:01.620Z,83.90
2023-01-08T23:41:34.866Z,83.90
2023-01-08T23:44:04.061Z,83.80
2023-01-08T23:46:31.662Z,83.90
2023-01-08T23:48:58.517Z,84.00
2023-01-08T23:51:27.568Z,83.90
2023-01-08T23:53:54.536Z,84.00
2023-01-08T23:56:22.754Z,83.90
2023-01-08T23:58:50.462Z,83.90
